createdAt,value
2022-08-14T00:02:01.453Z,100762.16
2022-08-14T00:04:35.665Z,100756.88
2022-08-14T00:07:11.350Z,100757.03
2022-08-14T00:09:39.560Z,100754.53
2022-08-14T00:12:33.083Z,100756.44
2022-08-14T00:15:08.903Z,100743.91
2022-08-14T00:17:38.155Z,100751.19
2022-08-14T00:20:23.832Z,100743.22
2022-08-14T00:22:57.495Z,100751.44
2022-08-14T00:25:30.706Z,100762.34
2022-08-14T00:28:15.370Z,100754.31
2022-08-14T00:30:46.722Z,100744.50
2022-08-14T00:33:15.976Z,100749.03
2022-08-14T00:36:36.542Z,100739.25
2022-08-14T00:38:35.192Z,100744.81
2022-08-14T00:41:06.976Z,100748.44
2022-08-14T00:43:43.089Z,100745.00
2022-08-14T00:46:30.151Z,100745.06
2022-08-14T00:49:00.277Z,100739.78
2022-08-14T00:51:36.807Z,100731.75
2022-08-14T00:54:16.881Z,100733.66
2022-08-14T00:56:50.757Z,100733.84
2022-08-14T00:59:23.379Z,100737.56
2022-08-14T01:01:53.010Z,100739.44
2022-08-14T01:04:52.187Z,100741.31
2022-08-14T01:07:14.245Z,100742.25
2022-08-14T01:09:42.720Z,100744.16
2022-08-14T01:12:11.884Z,100745.94
2022-08-14T01:14:40.857Z,100736.13
2022-08-14T01:17:09.106Z,100735.28
2022-08-14T01:19:54.358Z,100737.19
2022-08-14T01:22:26.655Z,100742.63
2022-08-14T01:24:54.907Z,100740.97
2022-08-14T01:27:24.695Z,100734.75
2022-08-14T01:30:01.134Z,100733.06
2022-08-14T01:32:37.610Z,100735.75
2022-08-14T01:36:04.641Z,100726.91
2022-08-14T01:38:09.388Z,100734.19
2022-08-14T01:40:41.750Z,100734.19
2022-08-14T01:43:18.334Z,100727.09
2022-08-14T01:46:06.144Z,100729.03
2022-08-14T01:48:37.380Z,100723.72
2022-08-14T01:51:20.139Z,100734.50
2022-08-14T01:53:54.942Z,100729.16
2022-08-14T01:56:30.808Z,100719.41
2022-08-14T02:01:58.467Z,100716.94
2022-08-14T02:04:55.839Z,100716.09
2022-08-14T02:07:44.893Z,100712.66
2022-08-14T02:10:13.089Z,100707.41
2022-08-14T02:12:44.019Z,100709.28
2022-08-14T02:15:12.721Z,100708.47
2022-08-14T02:17:43.819Z,100713.06
2022-08-14T02:20:14.042Z,100713.06
2022-08-14T02:22:47.603Z,100713.97
2022-08-14T02:25:17.613Z,100715.81
2022-08-14T02:28:25.653Z,100714.09
2022-08-14T02:30:34.803Z,100714.09
2022-08-14T02:33:07.562Z,100703.38
2022-08-14T02:35:40.882Z,100700.69
2022-08-14T02:38:11.933Z,100698.97
2022-08-14T02:40:58.970Z,100698.97
2022-08-14T02:43:36.768Z,100697.19
2022-08-14T02:46:05.832Z,100699.94
2022-08-14T02:49:04.487Z,100697.25
2022-08-14T02:51:24.509Z,100692.81
2022-08-14T02:53:59.082Z,100695.50
2022-08-14T02:56:30.411Z,100696.44
2022-08-14T02:59:17.169Z,100691.16
2022-08-14T03:01:50.905Z,100705.59
2022-08-14T03:04:23.405Z,100699.38
2022-08-14T03:07:06.115Z,100684.16
2022-08-14T03:10:25.370Z,100692.31
2022-08-14T03:12:31.661Z,100686.97
2022-08-14T03:15:14.259Z,100687.03
2022-08-14T03:17:57.542Z,100681.69
2022-08-14T03:20:27.855Z,100678.19
2022-08-14T03:22:56.179Z,100676.44
2022-08-14T03:25:24.040Z,100677.38
2022-08-14T03:27:58.609Z,100678.25
2022-08-14T03:30:38.774Z,100674.75
2022-08-14T03:33:11.398Z,100680.19
2022-08-14T03:36:00.293Z,100677.56
2022-08-14T03:39:13.005Z,100673.09
2022-08-14T03:41:20.278Z,100677.69
2022-08-14T03:44:00.929Z,100669.72
2022-08-14T03:46:38.880Z,100676.06
2022-08-14T03:49:29.338Z,100667.13
2022-08-14T03:52:00.683Z,100660.88
2022-08-14T03:54:29.730Z,100656.53
2022-08-14T03:57:02.321Z,100654.75
2022-08-14T03:59:32.324Z,100648.56
2022-08-14T04:02:02.154Z,100653.13
2022-08-14T04:04:30.878Z,100659.50
2022-08-14T04:07:00.126Z,100654.16
2022-08-14T04:09:28.086Z,100664.06
2022-08-14T04:11:58.273Z,100658.75
2022-08-14T04:14:29.104Z,100671.31
2022-08-14T04:16:58.686Z,100661.31
2022-08-14T04:19:28.071Z,100662.06
2022-08-14T04:22:03.740Z,100658.50
2022-08-14T04:24:37.746Z,100649.56
2022-08-14T04:27:09.537Z,100652.16
2022-08-14T04:29:39.305Z,100648.63
2022-08-14T04:32:58.748Z,100642.38
2022-08-14T04:34:58.074Z,100644.09
2022-08-14T04:37:45.560Z,100644.03
2022-08-14T04:40:31.671Z,100642.19
2022-08-14T04:43:17.750Z,100640.31
2022-08-14T04:45:51.118Z,100631.22
2022-08-14T04:48:42.811Z,100640.06
2022-08-14T04:51:12.612Z,100634.56
2022-08-14T04:53:43.974Z,100634.50
2022-08-14T04:56:31.028Z,100632.53
2022-08-14T04:59:05.230Z,100626.13
2022-08-14T05:01:41.761Z,100625.97
2022-08-14T05:04:19.938Z,100624.97
2022-08-14T05:06:53.613Z,100629.28
2022-08-14T05:09:24.203Z,100627.41
2022-08-14T05:11:53.236Z,100623.78
2022-08-14T05:14:45.277Z,100634.38
2022-08-14T05:17:10.919Z,100630.59
2022-08-14T05:19:44.269Z,100627.84
2022-08-14T05:22:16.392Z,100632.16
2022-08-14T05:24:48.783Z,100628.41
2022-08-14T05:27:23.337Z,100627.41
2022-08-14T05:29:55.174Z,100627.22
2022-08-14T05:32:26.862Z,100613.66
2022-08-14T05:34:58.944Z,100611.75
2022-08-14T05:37:29.547Z,100609.81
2022-08-14T05:39:59.373Z,100604.28
2022-08-14T05:42:32.028Z,100607.72
2022-08-14T05:45:04.052Z,100599.50
2022-08-14T05:47:38.824Z,100593.09
2022-08-14T05:50:17.486Z,100604.66
2022-08-14T05:52:48.716Z,100604.50
2022-08-14T05:55:17.000Z,100599.94
2022-08-14T05:57:53.510Z,100607.78
2022-08-14T06:00:28.548Z,100601.41
2022-08-14T06:03:00.247Z,100607.47
2022-08-14T06:05:30.292Z,100603.69
2022-08-14T06:07:59.535Z,100607.13
2022-08-14T06:10:29.083Z,100602.47
2022-08-14T06:12:58.587Z,100594.19
2022-08-14T06:15:29.944Z,100597.59
2022-08-14T06:18:00.214Z,100597.41
2022-08-14T06:20:31.164Z,100588.16
2022-08-14T06:22:59.606Z,100578.94
2022-08-14T06:25:28.296Z,100582.34
2022-08-14T06:27:58.247Z,100576.72
2022-08-14T06:30:46.039Z,100576.66
2022-08-14T06:33:16.269Z,100572.91
2022-08-14T06:35:48.671Z,100569.19
2022-08-14T06:38:18.698Z,100564.59
2022-08-14T06:40:47.793Z,100574.44
2022-08-14T06:43:17.019Z,100572.53
2022-08-14T06:45:50.358Z,100575.97
2022-08-14T06:48:24.102Z,100572.25
2022-08-14T06:50:54.790Z,100579.19
2022-08-14T06:53:27.661Z,100579.03
2022-08-14T06:56:01.905Z,100577.00
2022-08-14T06:58:32.372Z,100569.41
2022-08-14T07:01:27.072Z,100571.88
2022-08-14T07:04:22.785Z,100562.53
2022-08-14T07:06:54.876Z,100560.31
2022-08-14T07:09:27.921Z,100566.28
2022-08-14T07:11:56.480Z,100562.34
2022-08-14T07:14:25.833Z,100558.31
2022-08-14T07:16:54.340Z,100555.25
2022-08-14T07:19:24.027Z,100553.03
2022-08-14T07:21:54.402Z,100552.38
2022-08-14T07:24:31.014Z,100556.28
2022-08-14T07:26:59.741Z,100548.41
2022-08-14T07:29:28.787Z,100547.69
2022-08-14T07:31:57.125Z,100551.38
2022-08-14T07:34:36.025Z,100555.91
2022-08-14T07:37:06.908Z,100557.59
2022-08-14T07:39:35.181Z,100553.09
2022-08-14T07:42:03.335Z,100551.38
2022-08-14T07:44:36.090Z,100557.66
2022-08-14T07:47:15.950Z,100552.34
2022-08-14T07:49:55.722Z,100551.53
2022-08-14T07:52:30.562Z,100551.56
2022-08-14T07:54:59.063Z,100550.47
2022-08-14T07:57:28.266Z,100554.22
2022-08-14T07:59:56.410Z,100546.09
2022-08-14T08:02:32.697Z,100546.06
2022-08-14T08:05:01.771Z,100551.88
2022-08-14T08:07:32.315Z,100552.19
2022-08-14T08:10:46.743Z,100548.97
2022-08-14T08:13:15.525Z,100542.34
2022-08-14T08:15:45.352Z,100551.28
2022-08-14T08:18:20.560Z,100546.91
2022-08-14T08:20:59.569Z,100548.94
2022-08-14T08:23:40.819Z,100537.44
2022-08-14T08:26:19.727Z,100544.63
2022-08-14T08:28:57.582Z,100548.38
2022-08-14T08:31:35.000Z,100544.88
2022-08-14T08:34:07.240Z,100547.69
2022-08-14T08:36:46.669Z,100542.69
2022-08-14T08:39:22.711Z,100543.78
2022-08-14T08:41:53.401Z,100544.00
2022-08-14T08:44:31.575Z,100549.75
2022-08-14T08:47:06.128Z,100542.66
2022-08-14T08:49:52.716Z,100531.13
2022-08-14T08:52:31.518Z,100528.38
2022-08-14T08:55:16.065Z,100524.91
2022-08-14T08:57:44.090Z,100524.00
2022-08-14T09:00:25.172Z,100515.13
2022-08-14T09:02:59.374Z,100515.09
2022-08-14T09:05:28.886Z,100510.00
2022-08-14T09:08:30.249Z,100516.59
2022-08-14T09:11:01.751Z,100512.97
2022-08-14T09:13:30.729Z,100505.31
2022-08-14T09:16:01.072Z,100503.59
2022-08-14T09:18:48.048Z,100496.22
2022-08-14T09:21:16.609Z,100500.41
2022-08-14T09:24:26.324Z,100500.00
2022-08-14T09:26:34.489Z,100489.63
2022-08-14T09:29:03.351Z,100488.59
2022-08-14T09:31:42.536Z,100489.31
2022-08-14T09:34:28.133Z,100480.47
2022-08-14T09:37:20.616Z,100490.59
2022-08-14T09:40:01.236Z,100474.03
2022-08-14T09:42:51.328Z,100477.03
2022-08-14T09:45:20.927Z,100476.19
2022-08-14T09:47:52.495Z,100474.53
2022-08-14T09:50:26.035Z,100473.72
2022-08-14T09:52:58.243Z,100464.97
2022-08-14T09:55:36.519Z,100457.22
2022-08-14T09:58:19.720Z,100453.13
2022-08-14T10:00:54.002Z,100449.53
2022-08-14T10:03:33.951Z,100446.28
2022-08-14T10:06:07.480Z,100443.16
2022-08-14T10:08:51.137Z,100436.56
2022-08-14T10:11:23.141Z,100439.44
2022-08-14T10:13:56.113Z,100438.56
2022-08-14T10:16:33.010Z,100425.56
2022-08-14T10:19:10.263Z,100427.88
2022-08-14T10:21:58.878Z,100430.31
2022-08-14T10:24:36.651Z,100415.84
2022-08-14T10:27:16.916Z,100416.56
2022-08-14T10:29:50.742Z,100413.56
2022-08-14T10:32:28.611Z,100415.63
2022-08-14T10:35:13.723Z,100414.91
2022-08-14T10:37:46.867Z,100407.53
2022-08-14T10:40:37.354Z,100398.25
2022-08-14T10:43:17.703Z,100394.91
2022-08-14T10:46:03.708Z,100395.03
2022-08-14T10:48:58.368Z,100395.13
2022-08-14T10:51:29.992Z,100393.97
2022-08-14T10:54:01.997Z,100388.94
2022-08-14T10:56:52.165Z,100389.69
2022-08-14T10:59:30.974Z,100379.94
2022-08-14T11:02:17.623Z,100388.66
2022-08-14T11:05:08.568Z,100382.19
2022-08-14T11:07:39.737Z,100379.78
2022-08-14T11:10:10.382Z,100376.63
2022-08-14T11:12:48.039Z,100390.47
2022-08-14T11:15:17.967Z,100379.75
2022-08-14T11:17:48.843Z,100379.94
2022-08-14T11:20:20.393Z,100376.63
2022-08-14T11:22:58.800Z,100361.56
2022-08-14T11:25:43.301Z,100362.69
2022-08-14T11:28:14.671Z,100361.84
2022-08-14T11:30:54.105Z,100360.03
2022-08-14T11:33:31.141Z,100353.81
2022-08-14T11:36:01.849Z,100352.28
2022-08-14T11:38:37.858Z,100350.69
2022-08-14T11:41:07.545Z,100358.50
2022-08-14T11:43:40.600Z,100357.09
2022-08-14T11:46:17.966Z,100344.34
2022-08-14T11:49:04.217Z,100345.00
2022-08-14T11:51:36.000Z,100342.13
2022-08-14T11:54:06.285Z,100338.84
2022-08-14T11:56:37.953Z,100345.56
2022-08-14T11:59:10.226Z,100339.00
2022-08-14T12:01:41.398Z,100331.25
2022-08-14T12:04:32.710Z,100331.59
2022-08-14T12:07:03.586Z,100318.50
2022-08-14T12:09:33.314Z,100314.75
2022-08-14T12:12:02.639Z,100314.06
2022-08-14T12:14:35.675Z,100313.72
2022-08-14T12:17:12.187Z,100311.84
2022-08-14T12:19:51.485Z,100305.78
2022-08-14T12:22:34.053Z,100300.16
2022-08-14T12:25:06.025Z,100299.31
2022-08-14T12:27:53.478Z,100295.16
2022-08-14T12:30:42.597Z,100298.19
2022-08-14T12:33:25.722Z,100297.00
2022-08-14T12:36:05.489Z,100286.13
2022-08-14T12:38:36.555Z,100276.56
2022-08-14T12:41:10.624Z,100270.13
2022-08-14T12:43:48.129Z,100256.28
2022-08-14T12:46:27.502Z,100261.00
2022-08-14T12:48:58.635Z,100253.97
2022-08-14T12:51:30.861Z,100257.16
2022-08-14T12:54:00.769Z,100256.69
2022-08-14T12:56:33.033Z,100259.56
2022-08-14T12:59:04.680Z,100252.50
2022-08-14T13:02:00.150Z,100248.69
2022-08-14T13:04:22.752Z,100253.06
2022-08-14T13:06:53.823Z,100251.44
2022-08-14T13:09:35.743Z,100233.44
2022-08-14T13:12:32.690Z,100236.78
2022-08-14T13:14:57.804Z,100233.63
2022-08-14T13:17:27.085Z,100226.00
2022-08-14T13:19:58.360Z,100211.34
2022-08-14T13:22:32.322Z,100210.13
2022-08-14T13:25:07.347Z,100204.72
2022-08-14T13:27:39.185Z,100197.00
2022-08-14T13:30:14.570Z,100198.47
2022-08-14T13:32:53.246Z,100193.84
2022-08-14T13:35:22.879Z,100186.34
2022-08-14T13:37:53.584Z,100184.50
2022-08-14T13:40:26.630Z,100195.44
2022-08-14T13:42:57.640Z,100184.34
2022-08-14T13:45:59.237Z,100177.63
2022-08-14T13:48:19.203Z,100170.78
2022-08-14T13:51:04.261Z,100166.56
2022-08-14T13:53:38.219Z,100163.56
2022-08-14T13:56:14.435Z,100154.69
2022-08-14T13:58:46.875Z,100157.63
2022-08-14T14:01:18.906Z,100143.53
2022-08-14T14:03:51.539Z,100144.38
2022-08-14T14:06:24.537Z,100139.44
2022-08-14T14:08:59.063Z,100127.25
2022-08-14T14:11:30.127Z,100133.78
2022-08-14T14:14:00.457Z,100122.50
2022-08-14T14:16:30.738Z,100119.13
2022-08-14T14:19:06.747Z,100123.31
2022-08-14T14:21:37.811Z,100116.88
2022-08-14T14:24:07.790Z,100112.00
2022-08-14T14:26:36.986Z,100109.66
2022-08-14T14:29:07.684Z,100106.00
2022-08-14T14:31:38.869Z,100103.34
2022-08-14T14:34:19.935Z,100099.34
2022-08-14T14:37:05.042Z,100090.16
2022-08-14T14:39:38.132Z,100093.00
2022-08-14T14:42:31.931Z,100084.41
2022-08-14T14:45:05.779Z,100085.38
2022-08-14T14:47:34.451Z,100078.38
2022-08-14T14:50:03.663Z,100073.13
2022-08-14T14:52:32.501Z,100056.72
2022-08-14T14:55:08.480Z,100068.53
2022-08-14T14:57:36.802Z,100054.91
2022-08-14T15:00:12.645Z,100054.50
2022-08-14T15:02:42.865Z,100057.06
2022-08-14T15:05:14.133Z,100045.25
2022-08-14T15:07:42.542Z,100041.25
2022-08-14T15:10:27.293Z,100045.09
2022-08-14T15:13:04.182Z,100041.72
2022-08-14T15:15:33.067Z,100045.38
2022-08-14T15:18:01.674Z,100041.41
2022-08-14T15:20:31.218Z,100048.22
2022-08-14T15:23:12.379Z,100053.25
2022-08-14T15:25:42.273Z,100055.75
2022-08-14T15:28:13.143Z,100053.63
2022-08-14T15:30:57.924Z,100049.47
2022-08-14T15:34:13.311Z,100045.47
2022-08-14T15:36:29.880Z,100044.94
2022-08-14T15:38:59.042Z,100043.78
2022-08-14T15:41:41.689Z,100037.13
2022-08-14T15:44:25.355Z,100036.25
2022-08-14T15:46:55.084Z,100044.53
2022-08-14T15:49:24.356Z,100030.28
2022-08-14T15:52:04.258Z,100033.28
2022-08-14T15:54:33.955Z,100032.59
2022-08-14T15:57:06.352Z,100031.06
2022-08-14T15:59:50.647Z,100020.75
2022-08-14T16:02:24.603Z,100025.94
2022-08-14T16:04:56.070Z,100016.28
2022-08-14T16:07:27.074Z,100013.69
2022-08-14T16:10:25.670Z,100008.56
2022-08-14T16:12:54.501Z,100007.53
2022-08-14T16:15:23.451Z,100019.47
2022-08-14T16:17:53.454Z,100020.16
2022-08-14T16:20:41.823Z,100018.63
2022-08-14T16:23:12.112Z,100032.88
2022-08-14T16:25:44.532Z,100020.78
2022-08-14T16:28:27.407Z,100022.66
2022-08-14T16:30:56.637Z,100032.72
2022-08-14T16:33:27.896Z,100032.63
2022-08-14T16:36:29.849Z,100028.75
2022-08-14T16:39:01.340Z,100021.41
2022-08-14T16:41:29.971Z,100022.34
2022-08-14T16:44:02.439Z,100022.91
2022-08-14T16:46:35.285Z,100012.50
2022-08-14T16:49:05.638Z,100021.69
2022-08-14T16:51:36.386Z,100017.31
2022-08-14T16:54:20.877Z,100013.78
2022-08-14T16:57:13.630Z,100010.28
2022-08-14T16:59:51.814Z,100010.50
2022-08-14T17:02:35.090Z,100006.25
2022-08-14T17:05:20.769Z,100007.50
2022-08-14T17:08:33.450Z,100010.22
2022-08-14T17:11:10.824Z,99999.94
2022-08-14T17:13:58.639Z,99995.38
2022-08-14T17:16:35.885Z,100009.00
2022-08-14T17:19:17.551Z,100010.28
2022-08-14T17:21:46.957Z,100014.75
2022-08-14T17:24:56.788Z,100007.53
2022-08-14T17:27:06.108Z,100012.63
2022-08-14T17:29:44.327Z,100012.78
2022-08-14T17:32:29.831Z,100007.00
2022-08-14T17:35:16.222Z,100004.28
2022-08-14T17:37:55.495Z,100003.41
2022-08-14T17:40:30.391Z,99995.91
2022-08-14T17:43:02.406Z,99987.97
2022-08-14T17:45:46.784Z,99985.69
2022-08-14T17:49:15.062Z,99972.72
2022-08-14T17:51:24.157Z,99969.94
2022-08-14T17:54:02.322Z,99957.72
2022-08-14T17:56:31.790Z,99966.34
2022-08-14T17:59:02.826Z,99961.44
2022-08-14T18:01:37.628Z,99962.84
2022-08-14T18:04:24.495Z,99954.22
2022-08-14T18:07:16.763Z,99962.13
2022-08-14T18:09:56.910Z,99962.53
2022-08-14T18:12:36.382Z,99961.38
2022-08-14T18:15:16.184Z,99951.13
2022-08-14T18:17:53.251Z,99954.53
2022-08-14T18:21:42.449Z,99952.50
2022-08-14T18:23:14.278Z,99953.47
2022-08-14T18:25:49.447Z,99956.97
2022-08-14T18:28:51.111Z,99953.22
2022-08-14T18:31:42.230Z,99956.16
2022-08-14T18:34:30.925Z,99954.19
2022-08-14T18:37:16.759Z,99958.59
2022-08-14T18:40:03.299Z,99966.75
2022-08-14T18:42:44.709Z,99965.81
2022-08-14T18:45:18.535Z,99961.13
2022-08-14T18:48:14.690Z,99960.06
2022-08-14T18:50:52.287Z,99958.97
2022-08-14T18:53:24.755Z,99960.59
2022-08-14T18:55:56.272Z,99960.38
2022-08-14T18:58:34.455Z,99957.53
2022-08-14T19:01:04.491Z,99965.34
2022-08-14T19:03:58.498Z,99961.56
2022-08-14T19:06:56.029Z,99951.56
2022-08-14T19:09:57.821Z,99962.22
2022-08-14T19:13:03.102Z,99960.13
2022-08-14T19:15:34.330Z,99959.13
2022-08-14T19:18:17.897Z,99965.06
2022-08-14T19:20:56.510Z,99965.81
2022-08-14T19:23:42.903Z,99965.56
2022-08-14T19:26:36.173Z,99968.88
2022-08-14T19:29:39.472Z,99956.03
2022-08-14T19:32:39.632Z,99949.47
2022-08-14T19:35:56.042Z,99943.03
2022-08-14T19:38:54.991Z,99946.53
2022-08-14T19:41:30.147Z,99949.88
2022-08-14T19:44:10.456Z,99957.66
2022-08-14T19:47:00.985Z,99952.06
2022-08-14T19:50:09.100Z,99959.06
2022-08-14T19:52:22.511Z,99957.81
2022-08-14T19:54:51.514Z,99963.59
2022-08-14T19:57:23.788Z,99957.88
2022-08-14T20:00:01.954Z,99963.78
2022-08-14T20:02:41.160Z,99966.81
2022-08-14T20:05:11.365Z,99959.13
2022-08-14T20:07:59.091Z,99951.34
2022-08-14T20:11:03.253Z,99962.53
2022-08-14T20:13:32.129Z,99959.31
2022-08-14T20:16:12.067Z,99949.16
2022-08-14T20:18:51.992Z,99957.84
2022-08-14T20:21:21.545Z,99948.22
2022-08-14T20:23:50.268Z,99943.97
2022-08-14T20:26:31.539Z,99946.91
2022-08-14T20:29:05.232Z,99950.94
2022-08-14T20:31:38.331Z,99947.47
2022-08-14T20:34:19.393Z,99939.78
2022-08-14T20:37:04.761Z,99936.63
2022-08-14T20:39:43.553Z,99949.53
2022-08-14T20:42:31.945Z,99943.47
2022-08-14T20:45:21.494Z,99945.56
2022-08-14T20:47:57.786Z,99942.19
2022-08-14T20:50:28.623Z,99944.25
2022-08-14T20:52:58.015Z,99942.72
2022-08-14T20:55:29.297Z,99942.09
2022-08-14T20:57:59.466Z,99940.69
2022-08-14T21:00:52.242Z,99930.16
2022-08-14T21:03:31.148Z,99924.22
2022-08-14T21:06:01.496Z,99933.66
2022-08-14T21:08:47.967Z,99935.72
2022-08-14T21:11:18.858Z,99930.63
2022-08-14T21:14:20.035Z,99932.56
2022-08-14T21:16:39.339Z,99943.63
2022-08-14T21:19:16.516Z,99934.00
2022-08-14T21:21:54.807Z,99933.34
2022-08-14T21:24:39.536Z,99944.41
2022-08-14T21:27:20.476Z,99940.34
2022-08-14T21:29:55.424Z,99945.13
2022-08-14T21:32:35.194Z,99948.03
2022-08-14T21:35:08.131Z,99955.41
2022-08-14T21:37:44.034Z,99949.22
2022-08-14T21:40:40.237Z,99943.88
2022-08-14T21:43:05.013Z,99947.69
2022-08-14T21:45:35.770Z,99944.34
2022-08-14T21:48:10.992Z,99941.72
2022-08-14T21:51:02.262Z,99942.69
2022-08-14T21:53:34.128Z,99949.31
2022-08-14T21:56:03.849Z,99951.38
2022-08-14T21:58:52.712Z,99933.47
2022-08-14T22:01:21.690Z,99933.78
2022-08-14T22:03:55.038Z,99936.59
2022-08-14T22:06:28.487Z,99932.16
2022-08-14T22:08:58.335Z,99938.66
2022-08-14T22:11:27.638Z,99934.31
2022-08-14T22:13:56.687Z,99923.69
2022-08-14T22:16:58.703Z,99928.44
2022-08-14T22:19:21.487Z,99925.16
2022-08-14T22:22:01.380Z,99929.16
2022-08-14T22:24:38.004Z,99921.44
2022-08-14T22:27:18.465Z,99921.75
2022-08-14T22:29:54.968Z,99921.06
2022-08-14T22:32:35.267Z,99925.81
2022-08-14T22:35:15.588Z,99921.59
2022-08-14T22:37:45.893Z,99917.22
2022-08-14T22:41:00.053Z,99924.50
2022-08-14T22:43:19.730Z,99912.91
2022-08-14T22:45:55.131Z,99906.72
2022-08-14T22:48:23.711Z,99914.94
2022-08-14T22:50:53.366Z,99903.38
2022-08-14T22:53:23.100Z,99913.41
2022-08-14T22:55:52.348Z,99910.03
2022-08-14T22:58:30.119Z,99905.91
2022-08-14T23:01:00.234Z,99900.03
2022-08-14T23:03:28.888Z,99897.59
2022-08-14T23:05:57.278Z,99897.84
2022-08-14T23:08:58.890Z,99899.88
2022-08-14T23:11:16.334Z,99901.88
2022-08-14T23:13:46.093Z,99895.81
2022-08-14T23:16:20.078Z,99893.31
2022-08-14T23:18:53.983Z,99880.09
2022-08-14T23:21:24.207Z,99889.34
2022-08-14T23:23:57.092Z,99877.94
2022-08-14T23:26:48.245Z,99877.38
2022-08-14T23:29:15.689Z,99879.50
2022-08-14T23:31:45.818Z,99872.56
2022-08-14T23:34:20.771Z,99872.75
2022-08-14T23:36:54.481Z,99865.72
2022-08-14T23:39:29.769Z,99857.81
2022-08-14T23:42:02.296Z,99866.00
2022-08-14T23:44:35.355Z,99869.00
2022-08-14T23:47:11.539Z,99870.16
2022-08-14T23:50:00.587Z,99859.63
2022-08-14T23:52:51.015Z,99859.81
2022-08-14T23:55:20.241Z,99861.94
2022-08-14T23:57:58.295Z,99860.41
